Time;durP1;ratioP1;P1;durP2;ratioP2;P2;SDS_P1;SDS_P2;PMS_P1;PMS_P2;Temp;Humidity;BMP_temperature;BMP_pressure;BME280_temperature;BME280_humidity;BME280_pressure;Samples;Min_cycle;Max_cycle;Signal;HPM_P1;HPM_P2
2023/01/11 00:02:26;;;;;;;;;1.33;1.33;;;;;;;;5042853;28;9916;-81
2023/01/11 00:04:53;;;;;;;;;1.00;1.00;;;;;;;;5045706;28;9167;-81
2023/01/11 00:07:21;;;;;;;;;1.00;1.00;;;;;;;;5026502;28;9243;-81
2023/01/11 00:09:50;;;;;;;;;3.00;1.00;;;;;;;;5045127;28;9317;-81
2023/01/11 00:12:17;;;;;;;;;1.00;1.00;;;;;;;;5025744;28;9122;-81
2023/01/11 00:14:45;;;;;;;;;3.00;1.00;;;;;;;;5040248;28;9182;-81
2023/01/11 00:17:12;;;;;;;;;1.00;1.00;;;;;;;;5026902;28;9356;-81
2023/01/11 00:19:40;;;;;;;;;1.00;0.67;;;;;;;;5042059;28;9005;-81
2023/01/11 00:22:08;;;;;;;;;1.00;1.00;;;;;;;;5025316;28;9041;-81
2023/01/11 00:24:36;;;;;;;;;1.67;1.00;;;;;;;;5039526;28;9056;-81
2023/01/11 00:27:05;;;;;;;;;2.00;0.67;;;;;;;;5025716;28;9089;-82
2023/01/11 00:29:32;;;;;;;;;0.50;0.50;;;;;;;;5026089;28;8960;-82
2023/01/11 00:32:00;;;;;;;;;1.00;1.00;;;;;;;;5047924;28;8815;-81
2023/01/11 00:34:27;;;;;;;;;2.00;1.00;;;;;;;;5028171;28;9006;-80
2023/01/11 00:36:55;;;;;;;;;1.75;1.00;;;;;;;;5022538;28;8989;-81
2023/01/11 00:39:22;;;;;;;;;1.50;1.50;;;;;;;;5029589;28;8848;-79
2023/01/11 00:50:06;;;;;;;;;1.00;1.00;;;;;;;;5039307;28;8829;-81
2023/01/11 00:52:34;;;;;;;;;1.00;1.00;;;;;;;;5047327;28;9124;-81
2023/01/11 00:55:02;;;;;;;;;1.00;1.00;;;;;;;;5041266;28;8839;-81
2023/01/11 00:57:29;;;;;;;;;0.25;0.25;;;;;;;;5025701;28;9020;-81
2023/01/11 00:59:59;;;;;;;;;1.00;1.00;;;;;;;;5041621;28;8896;-81
2023/01/11 01:02:26;;;;;;;;;0.67;0.67;;;;;;;;5028301;28;9003;-80
2023/01/11 01:04:54;;;;;;;;;1.00;1.00;;;;;;;;5037672;28;8943;-80
2023/01/11 01:07:21;;;;;;;;;0.67;0.67;;;;;;;;5006194;28;8959;-81
2023/01/11 01:09:49;;;;;;;;;2.00;2.00;;;;;;;;5053330;28;9410;-80
2023/01/11 01:14:24;;;;;;;;;1.00;1.00;;;;;;;;5036914;28;9089;-81
2023/01/11 01:15:08;;;;;;;;;1.00;1.00;;;;;;;;5047254;28;9032;-81
2023/01/11 01:17:35;;;;;;;;;1.00;1.00;;;;;;;;5016450;28;9178;-81
2023/01/11 01:20:03;;;;;;;;;1.33;1.33;;;;;;;;5035178;28;9095;-80
2023/01/11 01:22:30;;;;;;;;;1.00;1.00;;;;;;;;5036255;28;9125;-81
2023/01/11 01:24:58;;;;;;;;;0.67;0.67;;;;;;;;5043600;28;8995;-82
2023/01/11 01:27:25;;;;;;;;;2.00;1.00;;;;;;;;5043667;28;9090;-82
2023/01/11 01:29:53;;;;;;;;;2.33;0.33;;;;;;;;5046562;28;9004;-82
2023/01/11 01:32:22;;;;;;;;;0.67;0.67;;;;;;;;5030345;28;8933;-81
2023/01/11 01:34:50;;;;;;;;;1.00;1.00;;;;;;;;5052321;28;9087;-81
2023/01/11 01:37:17;;;;;;;;;3.00;1.00;;;;;;;;5013617;28;9041;-82
2023/01/11 01:39:46;;;;;;;;;1.00;1.00;;;;;;;;5022131;28;8942;-82
2023/01/11 01:42:15;;;;;;;;;2.33;1.00;;;;;;;;5026116;28;9108;-81
2023/01/11 01:45:01;;;;;;;;;1.00;1.00;;;;;;;;4999773;28;9188;-80
2023/01/11 01:47:36;;;;;;;;;0.67;0.67;;;;;;;;5035617;28;9088;-79
2023/01/11 01:50:07;;;;;;;;;0.67;0.67;;;;;;;;5023480;28;9060;-80
2023/01/11 01:52:35;;;;;;;;;1.00;1.00;;;;;;;;5043203;28;9432;-80
2023/01/11 01:55:07;;;;;;;;;0.00;0.00;;;;;;;;5025076;28;8941;-81
2023/01/11 01:57:37;;;;;;;;;1.33;1.00;;;;;;;;5040433;28;8930;-81
2023/01/11 02:00:07;;;;;;;;;1.67;0.00;;;;;;;;5022805;28;9358;-81
2023/01/11 02:02:37;;;;;;;;;0.00;0.00;;;;;;;;4991943;28;8960;-82
2023/01/11 02:05:06;;;;;;;;;2.00;0.67;;;;;;;;5046692;28;8948;-81
2023/01/11 02:07:35;;;;;;;;;2.00;1.00;;;;;;;;5050510;28;9115;-82
2023/01/11 02:10:06;;;;;;;;;1.00;1.00;;;;;;;;5049434;28;9005;-81
2023/01/11 02:12:39;;;;;;;;;1.00;1.00;;;;;;;;5032970;28;9042;-81
2023/01/11 02:15:09;;;;;;;;;1.00;1.00;;;;;;;;5021501;28;9098;-80
2023/01/11 02:17:38;;;;;;;;;0.67;0.00;;;;;;;;5051550;28;8937;-82
2023/01/11 02:20:30;;;;;;;;;1.00;1.00;;;;;;;;5015239;28;8942;-82
2023/01/11 02:23:27;;;;;;;;;0.50;0.50;;;;;;;;5041414;28;9039;-84
2023/01/11 02:26:27;;;;;;;;;1.00;1.00;;;;;;;;5045604;28;8945;-80
2023/01/11 02:29:00;;;;;;;;;1.00;1.00;;;;;;;;5048766;28;8999;-80
2023/01/11 02:31:32;;;;;;;;;1.50;0.00;;;;;;;;5049476;28;9040;-80
2023/01/11 02:34:12;;;;;;;;;1.00;1.00;;;;;;;;5050651;28;8838;-80
2023/01/11 02:36:53;;;;;;;;;0.00;0.00;;;;;;;;5052480;28;8965;-80
2023/01/11 02:39:29;;;;;;;;;1.00;1.00;;;;;;;;5048867;28;9043;-79
2023/01/11 02:45:04;;;;;;;;;0.00;0.00;;;;;;;;5031769;28;8826;-80
2023/01/11 02:47:39;;;;;;;;;1.50;0.25;;;;;;;;5028412;28;8838;-80
2023/01/11 02:50:14;;;;;;;;;0.00;0.00;;;;;;;;5045366;28;8862;-79
2023/01/11 02:52:51;;;;;;;;;0.00;0.00;;;;;;;;5044189;28;9593;-80
2023/01/11 02:55:24;;;;;;;;;0.67;0.67;;;;;;;;5042489;28;9103;-80
2023/01/11 02:57:54;;;;;;;;;0.00;0.00;;;;;;;;5045197;28;8994;-80
2023/01/11 03:00:24;;;;;;;;;0.50;0.50;;;;;;;;5043294;28;8843;-79
2023/01/11 03:03:07;;;;;;;;;1.00;1.00;;;;;;;;5041659;28;8854;-80
2023/01/11 03:05:39;;;;;;;;;0.00;0.00;;;;;;;;5025642;28;9051;-80
2023/01/11 03:08:15;;;;;;;;;1.33;0.00;;;;;;;;5020312;28;8947;-80
2023/01/11 03:10:55;;;;;;;;;0.00;0.00;;;;;;;;5015906;28;8950;-80
2023/01/11 03:13:33;;;;;;;;;0.00;0.00;;;;;;;;5001146;28;8861;-80
2023/01/11 03:16:23;;;;;;;;;0.00;0.00;;;;;;;;5024092;28;8868;-80
2023/01/11 03:18:54;;;;;;;;;0.00;0.00;;;;;;;;5024093;28;8913;-80
2023/01/11 03:21:30;;;;;;;;;0.00;0.00;;;;;;;;5042068;28;8863;-80
2023/01/11 03:24:05;;;;;;;;;0.00;0.00;;;;;;;;5027464;28;8878;-79
2023/01/11 03:26:41;;;;;;;;;0.00;0.00;;;;;;;;5043910;28;8849;-80
2023/01/11 03:29:15;;;;;;;;;0.00;0.00;;;;;;;;5013085;28;9624;-79
2023/01/11 03:31:50;;;;;;;;;0.00;0.00;;;;;;;;5010684;28;8985;-80
2023/01/11 03:34:20;;;;;;;;;0.00;0.00;;;;;;;;5042775;28;8946;-80
2023/01/11 03:36:52;;;;;;;;;0.00;0.00;;;;;;;;5043104;28;9682;-80
2023/01/11 03:39:25;;;;;;;;;0.00;0.00;;;;;;;;5063728;28;8899;-80
2023/01/11 03:41:56;;;;;;;;;0.00;0.00;;;;;;;;5057366;28;8869;-80
2023/01/11 03:44:24;;;;;;;;;0.00;0.00;;;;;;;;5058298;28;8851;-80
2023/01/11 03:46:56;;;;;;;;;0.00;0.00;;;;;;;;5057860;28;8942;-80
2023/01/11 03:49:29;;;;;;;;;0.00;0.00;;;;;;;;5052382;28;8854;-80
2023/01/11 03:51:58;;;;;;;;;1.00;0.00;;;;;;;;5032419;28;9618;-80
2023/01/11 03:54:28;;;;;;;;;0.00;0.00;;;;;;;;5021193;28;8972;-80
2023/01/11 03:57:02;;;;;;;;;0.00;0.00;;;;;;;;5035015;28;8852;-80
2023/01/11 03:59:30;;;;;;;;;0.00;0.00;;;;;;;;5012194;28;8937;-79
2023/01/11 04:02:00;;;;;;;;;0.00;0.00;;;;;;;;5046911;28;8767;-80
2023/01/11 04:04:27;;;;;;;;;0.00;0.00;;;;;;;;5024965;28;8870;-80
2023/01/11 04:06:55;;;;;;;;;0.00;0.00;;;;;;;;5042393;28;8890;-81
2023/01/11 04:09:23;;;;;;;;;0.00;0.00;;;;;;;;5032179;28;8853;-80
2023/01/11 04:11:50;;;;;;;;;0.00;0.00;;;;;;;;5047084;28;8864;-80
2023/01/11 04:14:17;;;;;;;;;0.00;0.00;;;;;;;;5025259;28;9616;-80
2023/01/11 04:16:45;;;;;;;;;0.00;0.00;;;;;;;;5051367;28;8862;-81
2023/01/11 04:19:15;;;;;;;;;0.00;0.00;;;;;;;;5059317;28;8853;-81
2023/01/11 04:21:42;;;;;;;;;0.33;0.00;;;;;;;;5025511;28;8870;-81
2023/01/11 04:24:12;;;;;;;;;0.00;0.00;;;;;;;;5032274;28;8950;-80
2023/01/11 04:26:39;;;;;;;;;0.00;0.00;;;;;;;;5004000;28;8842;-81
2023/01/11 04:29:07;;;;;;;;;0.00;0.00;;;;;;;;5043337;28;8851;-81
2023/01/11 04:31:34;;;;;;;;;0.00;0.00;;;;;;;;5041523;28;8849;-81
2023/01/11 04:34:02;;;;;;;;;0.00;0.00;;;;;;;;5045599;28;8850;-81
2023/01/11 04:36:32;;;;;;;;;0.00;0.00;;;;;;;;5030537;28;8893;-80
2023/01/11 04:38:59;;;;;;;;;0.00;0.00;;;;;;;;5028071;28;8859;-80
2023/01/11 04:44:12;;;;;;;;;0.00;0.00;;;;;;;;5030980;28;8838;-79
2023/01/11 04:46:39;;;;;;;;;0.00;0.00;;;;;;;;5046492;28;9714;-80
2023/01/11 04:49:07;;;;;;;;;0.00;0.00;;;;;;;;5025918;28;8948;-80
2023/01/11 04:51:36;;;;;;;;;0.00;0.00;;;;;;;;5031440;28;9077;-80
2023/01/11 04:54:03;;;;;;;;;0.00;0.00;;;;;;;;5016557;28;9217;-80
2023/01/11 04:56:31;;;;;;;;;0.33;0.00;;;;;;;;5050999;28;9989;-80
2023/01/11 04:58:59;;;;;;;;;0.00;0.00;;;;;;;;5058155;28;9468;-80
2023/01/11 05:01:26;;;;;;;;;0.00;0.00;;;;;;;;5037459;28;9397;-81
2023/01/11 05:03:54;;;;;;;;;0.25;0.00;;;;;;;;5054642;28;9390;-81
2023/01/11 05:06:22;;;;;;;;;0.25;0.00;;;;;;;;5037385;28;9451;-81
2023/01/11 05:08:52;;;;;;;;;1.00;0.00;;;;;;;;5055643;28;9527;-81
2023/01/11 05:11:19;;;;;;;;;2.00;0.00;;;;;;;;5054242;28;9476;-81
2023/01/11 05:13:47;;;;;;;;;1.00;0.25;;;;;;;;5054581;28;9541;-80
2023/01/11 05:16:17;;;;;;;;;1.00;0.00;;;;;;;;5036374;28;9670;-80
2023/01/11 05:18:46;;;;;;;;;0.00;0.00;;;;;;;;5007432;28;9627;-81
2023/01/11 05:21:16;;;;;;;;;0.00;0.00;;;;;;;;5033366;28;9661;-80
2023/01/11 05:23:43;;;;;;;;;0.00;0.00;;;;;;;;5037912;28;9619;-81
2023/01/11 05:26:16;;;;;;;;;0.00;0.00;;;;;;;;5020434;28;10320;-80
2023/01/11 05:28:44;;;;;;;;;0.00;0.00;;;;;;;;5042157;28;9611;-80
2023/01/11 05:31:11;;;;;;;;;0.00;0.00;;;;;;;;5057512;28;9628;-81
2023/01/11 05:33:40;;;;;;;;;1.00;1.00;;;;;;;;5044331;28;9778;-81
2023/01/11 05:36:16;;;;;;;;;0.00;0.00;;;;;;;;5058837;28;9581;-81
2023/01/11 05:38:45;;;;;;;;;0.75;0.75;;;;;;;;5038425;28;9760;-81
2023/01/11 05:41:16;;;;;;;;;0.50;0.50;;;;;;;;5042380;28;9692;-81
2023/01/11 05:46:30;;;;;;;;;0.00;0.00;;;;;;;;5054372;28;9521;-80
2023/01/11 05:48:58;;;;;;;;;0.00;0.00;;;;;;;;5057883;28;9557;-80
2023/01/11 05:51:26;;;;;;;;;1.50;1.00;;;;;;;;5041338;28;9673;-80
2023/01/11 05:53:53;;;;;;;;;0.25;0.25;;;;;;;;5057166;28;9742;-82
2023/01/11 05:56:23;;;;;;;;;0.00;0.00;;;;;;;;5038266;28;9628;-81
2023/01/11 05:58:51;;;;;;;;;0.50;0.50;;;;;;;;5035423;28;9591;-81
2023/01/11 06:01:19;;;;;;;;;0.75;0.75;;;;;;;;5052213;28;10399;-81
2023/01/11 06:03:47;;;;;;;;;0.00;0.00;;;;;;;;5055339;28;9507;-81
2023/01/11 06:06:16;;;;;;;;;0.00;0.00;;;;;;;;5019517;28;9512;-83
2023/01/11 06:08:44;;;;;;;;;2.00;0.00;;;;;;;;5058838;28;9525;-82
2023/01/11 06:11:11;;;;;;;;;0.00;0.00;;;;;;;;5027434;28;9373;-81
2023/01/11 06:13:40;;;;;;;;;2.00;0.00;;;;;;;;5038064;28;9405;-81
2023/01/11 06:16:10;;;;;;;;;0.00;0.00;;;;;;;;5049929;28;10324;-81
2023/01/11 06:18:39;;;;;;;;;0.00;0.00;;;;;;;;5032972;28;9506;-81
2023/01/11 06:21:08;;;;;;;;;2.00;0.25;;;;;;;;5030830;28;9456;-81
2023/01/11 06:23:37;;;;;;;;;1.00;1.00;;;;;;;;5035507;28;9456;-81
2023/01/11 06:26:07;;;;;;;;;2.50;0.00;;;;;;;;5024489;28;9478;-81
2023/01/11 06:28:35;;;;;;;;;0.00;0.00;;;;;;;;5040179;28;9492;-81
2023/01/11 06:31:05;;;;;;;;;2.00;0.50;;;;;;;;5029755;28;9467;-81
2023/01/11 06:33:33;;;;;;;;;1.00;1.00;;;;;;;;5044202;28;9465;-80
2023/01/11 06:36:06;;;;;;;;;0.00;0.00;;;;;;;;5044455;28;9368;-81
2023/01/11 06:38:34;;;;;;;;;0.33;0.00;;;;;;;;5050807;28;9398;-81
2023/01/11 06:41:03;;;;;;;;;2.00;0.00;;;;;;;;5028984;28;9480;-80
2023/01/11 06:43:31;;;;;;;;;0.00;0.00;;;;;;;;5043245;28;9513;-80
2023/01/11 06:45:59;;;;;;;;;0.00;0.00;;;;;;;;5040661;28;10166;-80
2023/01/11 06:48:28;;;;;;;;;2.00;1.00;;;;;;;;5035221;28;9394;-80
2023/01/11 06:50:59;;;;;;;;;1.50;0.00;;;;;;;;5028955;28;9612;-83
2023/01/11 06:53:27;;;;;;;;;0.75;0.75;;;;;;;;5030792;28;9513;-81
2023/01/11 06:55:56;;;;;;;;;0.75;0.75;;;;;;;;5049591;28;9640;-80
2023/01/11 06:58:25;;;;;;;;;0.00;0.00;;;;;;;;5049120;28;9708;-80
2023/01/11 07:00:53;;;;;;;;;1.00;1.00;;;;;;;;5048959;28;9562;-80
2023/01/11 07:03:22;;;;;;;;;0.00;0.00;;;;;;;;5055432;28;9643;-81
2023/01/11 07:05:55;;;;;;;;;0.50;0.50;;;;;;;;5034743;28;9545;-81
2023/01/11 07:08:23;;;;;;;;;1.00;1.00;;;;;;;;5038427;28;9711;-81
2023/01/11 07:10:51;;;;;;;;;1.00;0.00;;;;;;;;5059799;28;9768;-81
2023/01/11 07:13:18;;;;;;;;;2.00;0.00;;;;;;;;5057557;28;9869;-81
2023/01/11 07:15:49;;;;;;;;;1.50;0.00;;;;;;;;5029461;28;9687;-81
2023/01/11 07:18:17;;;;;;;;;2.00;0.00;;;;;;;;5044113;28;9798;-81
2023/01/11 07:20:44;;;;;;;;;0.25;0.25;;;;;;;;5035190;28;9753;-81
2023/01/11 07:23:14;;;;;;;;;1.00;0.00;;;;;;;;5038605;28;9782;-79
2023/01/11 07:25:41;;;;;;;;;0.00;0.00;;;;;;;;5045091;28;9879;-81
2023/01/11 07:28:09;;;;;;;;;2.25;0.75;;;;;;;;5044587;28;9920;-81
2023/01/11 07:30:39;;;;;;;;;3.75;1.00;;;;;;;;5021908;28;9670;-81
2023/01/11 07:33:09;;;;;;;;;0.50;0.50;;;;;;;;5041665;28;9781;-81
2023/01/11 07:35:36;;;;;;;;;0.00;0.00;;;;;;;;5022962;28;9683;-75
2023/01/11 07:38:06;;;;;;;;;3.00;2.00;;;;;;;;5040816;28;10456;-75
2023/01/11 07:40:36;;;;;;;;;1.00;1.00;;;;;;;;5021009;28;9854;-74
2023/01/11 07:43:13;;;;;;;;;1.00;1.00;;;;;;;;4958980;28;9835;-73
2023/01/11 07:45:43;;;;;;;;;2.75;1.50;;;;;;;;5033041;28;9944;-73
2023/01/11 07:48:10;;;;;;;;;2.75;1.75;;;;;;;;5032229;28;10001;-74
2023/01/11 07:50:40;;;;;;;;;2.00;2.00;;;;;;;;5029268;28;9921;-75
2023/01/11 07:53:09;;;;;;;;;2.25;1.25;;;;;;;;5035514;28;10829;-75
2023/01/11 07:55:39;;;;;;;;;0.25;0.25;;;;;;;;5016788;28;9839;-75
2023/01/11 07:58:07;;;;;;;;;3.25;2.50;;;;;;;;5020365;28;9863;-76
2023/01/11 08:00:34;;;;;;;;;3.50;2.00;;;;;;;;5040176;28;10015;-74
2023/01/11 08:03:02;;;;;;;;;1.00;1.00;;;;;;;;5032070;28;10009;-74
2023/01/11 08:05:30;;;;;;;;;8.00;3.00;;;;;;;;5042456;28;9947;-75
2023/01/11 08:07:57;;;;;;;;;3.00;2.00;;;;;;;;5043814;28;10173;-75
2023/01/11 08:10:25;;;;;;;;;1.50;1.50;;;;;;;;5027218;28;10102;-75
2023/01/11 08:15:44;;;;;;;;;1.75;1.75;;;;;;;;4971112;28;10284;-75
2023/01/11 08:18:11;;;;;;;;;1.25;1.25;;;;;;;;4997230;28;10187;-75
2023/01/11 08:20:39;;;;;;;;;4.00;2.00;;;;;;;;5037020;28;10102;-74
2023/01/11 08:23:08;;;;;;;;;3.25;2.00;;;;;;;;5027659;28;10156;-75
2023/01/11 08:25:36;;;;;;;;;4.50;3.00;;;;;;;;5037564;28;10163;-74
2023/01/11 08:28:06;;;;;;;;;4.00;4.00;;;;;;;;5033058;28;10335;-73
2023/01/11 08:30:34;;;;;;;;;4.50;3.25;;;;;;;;5038130;28;10159;-74
2023/01/11 08:33:04;;;;;;;;;3.50;2.50;;;;;;;;5044418;28;10248;-74
2023/01/11 08:35:33;;;;;;;;;3.75;2.50;;;;;;;;5029916;28;10391;-76
2023/01/11 08:38:00;;;;;;;;;2.00;2.00;;;;;;;;5018648;28;11007;-75
2023/01/11 08:40:28;;;;;;;;;2.00;2.00;;;;;;;;4976205;28;10160;-72
2023/01/11 08:42:56;;;;;;;;;3.00;1.00;;;;;;;;5036252;28;10115;-74
2023/01/11 08:45:26;;;;;;;;;4.50;2.50;;;;;;;;5044421;28;10017;-73
2023/01/11 08:47:54;;;;;;;;;3.75;2.00;;;;;;;;5047115;28;10088;-76
2023/01/11 08:50:22;;;;;;;;;1.00;1.00;;;;;;;;5028755;28;10132;-76
2023/01/11 08:52:50;;;;;;;;;5.00;2.00;;;;;;;;5041953;28;10262;-74
2023/01/11 08:55:18;;;;;;;;;1.50;1.50;;;;;;;;5023496;28;10213;-74
2023/01/11 08:57:47;;;;;;;;;2.00;2.00;;;;;;;;4999420;28;10186;-74
2023/01/11 09:00:15;;;;;;;;;4.00;2.00;;;;;;;;5024699;28;10218;-74
2023/01/11 09:02:45;;;;;;;;;2.50;2.50;;;;;;;;5042764;28;10270;-73
2023/01/11 09:05:12;;;;;;;;;1.00;1.00;;;;;;;;5043578;28;10138;-74
2023/01/11 09:07:40;;;;;;;;;2.25;1.00;;;;;;;;5043104;28;10151;-74
2023/01/11 09:10:09;;;;;;;;;4.75;3.00;;;;;;;;5043344;28;10109;-73
2023/01/11 09:12:37;;;;;;;;;3.00;2.00;;;;;;;;5006741;28;10310;-74
2023/01/11 09:15:09;;;;;;;;;3.00;1.75;;;;;;;;5038367;28;11011;-74
2023/01/11 09:17:37;;;;;;;;;2.00;2.00;;;;;;;;5041294;28;10104;-76
2023/01/11 09:20:10;;;;;;;;;2.00;2.00;;;;;;;;5042221;28;10213;-74
2023/01/11 09:22:38;;;;;;;;;2.00;2.00;;;;;;;;5041679;28;10986;-74
2023/01/11 09:25:08;;;;;;;;;0.75;0.75;;;;;;;;4992316;28;10234;-75
2023/01/11 09:27:35;;;;;;;;;1.00;1.00;;;;;;;;5018085;28;10092;-74
2023/01/11 09:30:06;;;;;;;;;2.50;1.00;;;;;;;;5041719;28;10880;-75
2023/01/11 09:32:33;;;;;;;;;4.75;2.00;;;;;;;;5041358;28;9937;-74
2023/01/11 09:35:02;;;;;;;;;3.00;2.00;;;;;;;;5042718;28;10198;-74
2023/01/11 09:37:47;;;;;;;;;3.25;1.00;;;;;;;;5041778;28;10141;-70
2023/01/11 09:40:29;;;;;;;;;1.50;1.50;;;;;;;;5039980;28;10151;-73
2023/01/11 09:43:06;;;;;;;;;2.25;1.00;;;;;;;;5041980;28;10277;-73
2023/01/11 09:45:35;;;;;;;;;0.75;0.75;;;;;;;;5043493;28;10266;-71
2023/01/11 09:48:11;;;;;;;;;4.50;2.00;;;;;;;;5043439;28;10121;-73
2023/01/11 09:50:42;;;;;;;;;1.25;1.25;;;;;;;;5000196;28;10079;-73
2023/01/11 09:53:18;;;;;;;;;4.00;1.00;;;;;;;;5028143;28;10269;-73
2023/01/11 09:55:47;;;;;;;;;0.25;0.25;;;;;;;;5000775;28;10072;-75
2023/01/11 09:58:39;;;;;;;;;0.00;0.00;;;;;;;;5043072;28;10019;-75
2023/01/11 10:01:13;;;;;;;;;1.75;0.75;;;;;;;;5042887;28;9890;-73
2023/01/11 10:04:04;;;;;;;;;1.75;1.75;;;;;;;;5000520;28;9888;-75
2023/01/11 10:06:41;;;;;;;;;6.75;2.00;;;;;;;;5015601;28;10056;-74
2023/01/11 10:09:19;;;;;;;;;1.25;1.00;;;;;;;;5027708;28;10099;-72
2023/01/11 10:12:01;;;;;;;;;1.00;1.00;;;;;;;;5057521;28;10868;-75
2023/01/11 10:14:39;;;;;;;;;3.25;1.25;;;;;;;;5006339;28;9935;-74
2023/01/11 10:17:15;;;;;;;;;4.75;2.25;;;;;;;;5026237;28;10079;-73
2023/01/11 10:19:46;;;;;;;;;3.00;0.50;;;;;;;;5024412;28;10037;-73
2023/01/11 10:22:18;;;;;;;;;4.00;4.00;;;;;;;;5059496;28;9883;-73
2023/01/11 10:24:49;;;;;;;;;2.00;1.00;;;;;;;;5041159;28;9952;-75
2023/01/11 10:27:21;;;;;;;;;1.00;1.00;;;;;;;;5008881;28;9633;-75
2023/01/11 10:30:09;;;;;;;;;2.50;2.00;;;;;;;;5042212;28;9689;-71
2023/01/11 10:36:01;;;;;;;;;1.00;1.00;;;;;;;;5079826;27;13559;-74
2023/01/11 10:38:48;;;;;;;;;1.00;1.00;;;;;;;;5082517;28;9174;-74
2023/01/11 10:41:24;;;;;;;;;0.00;0.00;;;;;;;;5078443;28;9374;-74
2023/01/11 10:44:02;;;;;;;;;0.00;0.00;;;;;;;;5068324;28;9250;-74
2023/01/11 10:46:31;;;;;;;;;1.00;1.00;;;;;;;;5080635;28;9305;-74
2023/01/11 10:49:03;;;;;;;;;1.33;1.33;;;;;;;;5076527;28;10111;-74
2023/01/11 10:51:37;;;;;;;;;3.67;2.00;;;;;;;;5081014;28;9458;-75
2023/01/11 10:54:12;;;;;;;;;1.00;1.00;;;;;;;;5085722;28;9348;-74
2023/01/11 10:56:52;;;;;;;;;3.00;1.00;;;;;;;;5080487;28;9167;-74
2023/01/11 10:59:33;;;;;;;;;2.00;1.00;;;;;;;;5077176;28;9120;-76
2023/01/11 11:02:08;;;;;;;;;3.33;2.00;;;;;;;;5044681;28;9051;-74
2023/01/11 11:04:49;;;;;;;;;4.00;1.00;;;;;;;;5036797;28;8955;-75
2023/01/11 11:07:20;;;;;;;;;3.75;2.00;;;;;;;;5035549;28;8842;-74
2023/01/11 11:09:53;;;;;;;;;1.25;1.00;;;;;;;;5036587;28;9679;-74
2023/01/11 11:12:25;;;;;;;;;2.50;2.50;;;;;;;;5037408;28;8856;-74
2023/01/11 11:14:58;;;;;;;;;2.25;1.00;;;;;;;;5035847;28;8869;-74
2023/01/11 11:17:28;;;;;;;;;1.00;1.00;;;;;;;;5036531;28;8859;-74
2023/01/11 11:19:55;;;;;;;;;2.00;2.00;;;;;;;;5033695;28;8858;-74
2023/01/11 11:22:24;;;;;;;;;2.00;1.00;;;;;;;;5038167;28;8876;-74
2023/01/11 11:24:58;;;;;;;;;0.00;0.00;;;;;;;;5031446;28;8860;-74
2023/01/11 11:27:36;;;;;;;;;1.25;1.00;;;;;;;;5036511;28;8944;-75
2023/01/11 11:30:04;;;;;;;;;4.00;2.50;;;;;;;;5032985;28;8849;-73
2023/01/11 11:32:34;;;;;;;;;2.25;1.25;;;;;;;;5034078;28;8869;-74
2023/01/11 11:35:02;;;;;;;;;2.00;2.00;;;;;;;;5036850;28;8842;-72
2023/01/11 11:37:33;;;;;;;;;0.00;0.00;;;;;;;;5038490;28;8981;-73
2023/01/11 11:40:00;;;;;;;;;1.67;1.00;;;;;;;;5036639;28;9703;-74
2023/01/11 11:42:28;;;;;;;;;1.00;1.00;;;;;;;;5033566;28;8926;-73
2023/01/11 11:45:16;;;;;;;;;0.67;0.67;;;;;;;;5031323;28;9707;-74
2023/01/11 11:47:44;;;;;;;;;3.67;1.00;;;;;;;;5021237;28;9933;-73
2023/01/11 11:50:24;;;;;;;;;3.00;1.00;;;;;;;;5020968;28;9189;-75
2023/01/11 11:52:55;;;;;;;;;3.00;1.33;;;;;;;;5022032;28;8896;-73
2023/01/11 11:55:29;;;;;;;;;1.00;1.00;;;;;;;;5019106;28;9181;-72
2023/01/11 11:58:07;;;;;;;;;0.67;0.67;;;;;;;;5022231;28;9236;-73
2023/01/11 12:00:40;;;;;;;;;2.33;1.00;;;;;;;;5020073;28;9052;-72
2023/01/11 12:03:14;;;;;;;;;4.00;1.00;;;;;;;;5022736;28;9192;-73
2023/01/11 12:05:50;;;;;;;;;1.33;1.00;;;;;;;;5018809;28;9172;-73
2023/01/11 12:08:20;;;;;;;;;0.00;0.00;;;;;;;;5020245;28;9058;-73
2023/01/11 12:10:50;;;;;;;;;3.00;1.33;;;;;;;;5021558;28;9077;-74
2023/01/11 12:13:29;;;;;;;;;1.00;1.00;;;;;;;;5023571;28;9022;-74
2023/01/11 12:15:58;;;;;;;;;0.00;0.00;;;;;;;;5026899;28;8934;-76
2023/01/11 12:18:27;;;;;;;;;1.25;0.25;;;;;;;;5029232;28;8892;-70
2023/01/11 12:20:55;;;;;;;;;0.00;0.00;;;;;;;;5019617;28;8873;-72
2023/01/11 12:23:25;;;;;;;;;0.75;0.75;;;;;;;;5018010;28;8846;-72
2023/01/11 12:26:08;;;;;;;;;1.00;1.00;;;;;;;;5019265;28;8849;-72
2023/01/11 12:28:57;;;;;;;;;3.33;1.67;;;;;;;;5020378;28;8877;-72
2023/01/11 12:31:31;;;;;;;;;2.00;0.00;;;;;;;;5019937;28;8989;-72
2023/01/11 12:34:05;;;;;;;;;1.00;1.00;;;;;;;;5022507;28;8930;-72
2023/01/11 12:36:38;;;;;;;;;1.67;1.67;;;;;;;;5022093;28;8961;-71
2023/01/11 12:39:13;;;;;;;;;2.33;1.00;;;;;;;;5019980;28;9093;-73
2023/01/11 12:42:02;;;;;;;;;0.00;0.00;;;;;;;;5016570;28;8970;-73
2023/01/11 12:44:45;;;;;;;;;1.50;0.50;;;;;;;;5016736;28;9012;-72
2023/01/11 12:47:43;;;;;;;;;0.00;0.00;;;;;;;;5019722;28;8858;-72
2023/01/11 12:50:14;;;;;;;;;0.25;0.25;;;;;;;;5014810;28;8892;-72
2023/01/11 12:53:00;;;;;;;;;1.00;1.00;;;;;;;;5015041;28;8875;-73
2023/01/11 12:56:11;;;;;;;;;6.00;0.25;;;;;;;;5016518;28;8885;-75
2023/01/11 12:58:44;;;;;;;;;2.25;0.25;;;;;;;;5008574;28;8831;-73
2023/01/11 13:01:20;;;;;;;;;2.00;0.50;;;;;;;;5012230;28;8811;-73
2023/01/11 13:04:16;;;;;;;;;1.75;1.00;;;;;;;;5010333;28;8882;-73
2023/01/11 13:06:52;;;;;;;;;3.50;1.00;;;;;;;;4998142;28;9621;-73
2023/01/11 13:09:28;;;;;;;;;1.00;1.00;;;;;;;;5010828;28;8844;-73
2023/01/11 13:12:01;;;;;;;;;2.75;2.00;;;;;;;;5014287;28;8862;-73
2023/01/11 13:14:54;;;;;;;;;3.50;1.25;;;;;;;;5014787;28;8846;-73
2023/01/11 13:17:29;;;;;;;;;0.00;0.00;;;;;;;;5016824;28;8858;-73
2023/01/11 13:20:10;;;;;;;;;1.00;1.00;;;;;;;;5019645;28;8850;-73
2023/01/11 13:22:40;;;;;;;;;2.00;0.00;;;;;;;;5018488;28;9710;-73
2023/01/11 13:25:15;;;;;;;;;1.00;1.00;;;;;;;;5015577;28;8857;-73
2023/01/11 13:27:45;;;;;;;;;0.00;0.00;;;;;;;;5017749;28;8875;-73
2023/01/11 13:30:16;;;;;;;;;1.00;1.00;;;;;;;;5015190;28;8947;-73
2023/01/11 13:32:49;;;;;;;;;1.00;1.00;;;;;;;;5014842;28;8933;-73
2023/01/11 13:35:19;;;;;;;;;2.33;1.00;;;;;;;;5017249;28;8944;-73
2023/01/11 13:37:52;;;;;;;;;2.00;0.67;;;;;;;;5017857;28;9164;-73
2023/01/11 13:40:23;;;;;;;;;2.00;0.00;;;;;;;;5014450;28;9053;-74
2023/01/11 13:42:57;;;;;;;;;0.25;0.00;;;;;;;;5015368;28;9084;-74
2023/01/11 13:45:27;;;;;;;;;2.50;1.00;;;;;;;;5015721;28;8915;-73
2023/01/11 13:47:59;;;;;;;;;4.75;1.00;;;;;;;;5015835;28;8864;-73
2023/01/11 13:50:30;;;;;;;;;1.00;1.00;;;;;;;;5015886;28;8858;-73
2023/01/11 13:53:08;;;;;;;;;1.00;1.00;;;;;;;;5014280;28;9688;-73
2023/01/11 13:55:43;;;;;;;;;1.00;0.00;;;;;;;;5011189;28;9007;-74
2023/01/11 13:58:16;;;;;;;;;0.50;0.50;;;;;;;;5015702;28;8981;-72
2023/01/11 14:00:48;;;;;;;;;1.00;1.00;;;;;;;;5011853;28;8813;-72
2023/01/11 14:03:23;;;;;;;;;2.00;1.00;;;;;;;;4995760;28;8944;-73
2023/01/11 14:06:01;;;;;;;;;0.00;0.00;;;;;;;;4995709;28;9209;-73
2023/01/11 14:08:54;;;;;;;;;2.33;1.00;;;;;;;;4998785;28;9141;-72
2023/01/11 14:11:29;;;;;;;;;0.00;0.00;;;;;;;;4988746;28;9288;-73
2023/01/11 14:14:16;;;;;;;;;1.00;1.00;;;;;;;;4995342;28;10002;-72
2023/01/11 14:16:52;;;;;;;;;1.67;0.00;;;;;;;;4994955;28;8950;-72
2023/01/11 14:19:24;;;;;;;;;1.00;1.00;;;;;;;;4994823;28;9017;-75
2023/01/11 14:22:03;;;;;;;;;6.67;1.00;;;;;;;;4996735;28;9244;-72
2023/01/11 14:24:34;;;;;;;;;2.00;0.00;;;;;;;;4998046;28;9107;-73
2023/01/11 14:27:17;;;;;;;;;2.33;1.00;;;;;;;;4997075;28;9079;-73
2023/01/11 14:29:58;;;;;;;;;1.75;1.00;;;;;;;;4998356;28;9096;-73
2023/01/11 14:32:59;;;;;;;;;0.00;0.00;;;;;;;;4997735;28;8785;-72
2023/01/11 14:35:48;;;;;;;;;0.00;0.00;;;;;;;;4996416;28;9607;-73
2023/01/11 14:38:33;;;;;;;;;3.00;0.50;;;;;;;;4998085;28;8853;-74
2023/01/11 14:41:29;;;;;;;;;1.67;0.00;;;;;;;;4994019;28;8946;-74
2023/01/11 14:44:15;;;;;;;;;1.33;0.67;;;;;;;;4992986;28;9035;-74
2023/01/11 14:46:56;;;;;;;;;2.00;0.00;;;;;;;;4996912;28;8943;-77
2023/01/11 14:49:38;;;;;;;;;1.00;0.00;;;;;;;;4993324;28;9091;-75
2023/01/11 14:52:10;;;;;;;;;1.00;0.00;;;;;;;;4996594;28;8962;-75
2023/01/11 14:54:42;;;;;;;;;0.33;0.33;;;;;;;;4997535;28;9265;-73
2023/01/11 14:57:38;;;;;;;;;0.00;0.00;;;;;;;;4995689;28;9951;-73
2023/01/11 15:00:21;;;;;;;;;1.00;1.00;;;;;;;;4997470;28;9090;-72
2023/01/11 15:02:52;;;;;;;;;1.33;1.00;;;;;;;;5019281;28;8984;-73
2023/01/11 15:05:36;;;;;;;;;0.00;0.00;;;;;;;;5016359;28;9008;-75
2023/01/11 15:08:20;;;;;;;;;3.00;0.00;;;;;;;;5019811;28;8941;-75
2023/01/11 15:10:56;;;;;;;;;2.00;1.00;;;;;;;;5021620;28;9044;-73
2023/01/11 15:13:27;;;;;;;;;1.67;1.00;;;;;;;;5020581;28;9263;-74
2023/01/11 15:18:52;;;;;;;;;4.50;1.75;;;;;;;;5021521;28;10021;-73
2023/01/11 15:21:23;;;;;;;;;0.00;0.00;;;;;;;;5022282;28;9432;-73
2023/01/11 15:23:56;;;;;;;;;2.00;0.67;;;;;;;;5021532;28;9245;-72
2023/01/11 15:26:26;;;;;;;;;1.00;0.00;;;;;;;;5018244;28;10179;-73
2023/01/11 15:28:56;;;;;;;;;1.75;0.75;;;;;;;;5019055;28;9380;-73
2023/01/11 15:31:37;;;;;;;;;2.00;2.00;;;;;;;;5021044;28;10259;-73
2023/01/11 15:34:18;;;;;;;;;2.00;1.00;;;;;;;;5020023;28;9648;-73
2023/01/11 15:37:11;;;;;;;;;1.00;1.00;;;;;;;;5021623;28;9543;-73
2023/01/11 15:39:44;;;;;;;;;2.00;1.00;;;;;;;;5020419;28;9551;-73
2023/01/11 15:42:40;;;;;;;;;2.00;0.00;;;;;;;;5021745;28;9477;-73
2023/01/11 15:46:51;;;;;;;;;4.00;1.50;;;;;;;;5020627;28;9479;-73
2023/01/11 15:48:36;;;;;;;;;1.00;0.00;;;;;;;;5019225;28;9633;-73
2023/01/11 15:51:19;;;;;;;;;0.00;0.00;;;;;;;;5017907;28;9890;-73
2023/01/11 15:54:28;;;;;;;;;3.00;1.00;;;;;;;;5017818;28;9755;-73
2023/01/11 15:57:38;;;;;;;;;2.00;0.25;;;;;;;;4985806;28;9861;-75